• Join FlightAware (Why Join?)
  • Login
  • US Flag 
08:49PM EDT


 

Airport Tracker/Info


-or-


 

Live Flight TrackerFlight Track Log ✈ N960DL ✈ 17-Apr-2013 ✈ KMIA - KATL

Flight Track Log - Related Links

Times and Time Zones

All times are in EDT time to prevent confusion due to time zone crossing. See the N960DL flight status page for this flight to view local times or setup timezone preferences in your user account.

Time Position Orientation Groundspeed Altitude Reporting Facility
EDT Latitude Longitude Course Direction KTS MPH feet Rate Location/Type
10:31AM 25.7981 -80.2767 336° Northwest 172 198 900  Level Miami Center
10:31AM 25.7992 -80.2353 88° East 201 231 2,200 2,220 Climbing Miami Center
10:32AM 25.8050 -80.1592 85° East 267 307 4,800 2,340 Climbing Miami Center
10:33AM 25.8583 -80.1100 40° Northeast 273 314 7,000 1,200 Climbing Miami Center
10:34AM 25.9161 -80.1347 339° North 296 341 7,000 1,560 Level Miami Center
10:35AM 25.9692 -80.1961 314° West 272 313 9,800 2,160 Climbing Miami Center
10:36AM 26.4195 -80.5180 336° Northwest  Level FlightAware Approximate
10:36AM 26.0367 -80.2606 319° Northwest 291 335 11,400  Level Miami Center
10:37AM 26.1206 -80.3344 322° Northwest 342 394 13,200 2,220 Climbing Miami Center
10:38AM 26.2125 -80.4136 322° Northwest 380 437 15,900 2,280 Climbing Miami Center
10:39AM 26.3053 -80.4675 332° Northwest 418 481 17,800 2,280 Climbing Miami Center
10:40AM 26.4269 -80.5244 337° Northwest 425 489 20,500 2,340 Climbing Miami Center
10:41AM 26.5303 -80.5742 337° Northwest 437 503 22,500 1,860 Climbing Miami Center
10:42AM 26.6561 -80.6339 337° Northwest 442 509 24,300 2,100 Climbing Miami Center
10:43AM 26.7592 -80.6814 338° Northwest 442 509 26,700 2,280 Climbing Miami Center
10:44AM 26.8750 -80.7225 342° North 437 503 28,900 2,400 Climbing Miami Center
10:45AM 26.9950 -80.7661 342° North 421 484 31,500 1,920 Climbing Miami Center
10:46AM 27.1025 -80.8047 342° North 416 479 32,800 1,200 Climbing Miami Center
10:47AM 27.2058 -80.8431 342° North 405 466 34,000 1,020 Climbing Miami Center
10:48AM 27.2989 -80.8792 341° North 400 460 34,900 480 Climbing Miami Center
10:49AM 27.4147 -80.9158 344° North 407 468 35,000  Climbing Miami Center
10:50AM 27.5181 -80.9547 342° North 400 460 35,000  Level Miami Center
10:51AM 27.6214 -80.9936 342° North 400 460 35,000 420 Level Miami Center
10:52AM 27.7308 -81.0325 343° North 400 460 35,900 720 Climbing Miami Center
10:53AM 27.8278 -81.0692 342° North 393 452 36,500 540 Climbing Miami Center
10:54AM 27.9392 -81.1108 342° North 406 467 37,000 240 Climbing Miami Center
10:55AM 28.0569 -81.1553 342° North 400 460 37,000  Level Miami Center
10:56AM 28.1622 -81.1944 342° North 400 460 37,000  Level Miami Center
10:57AM 28.2653 -81.2339 341° North 394 453 37,000  Level Miami Center
10:58AM 28.3581 -81.2681 342° North 394 453 37,000  Level Miami Center
10:59AM 28.4656 -81.3031 344° North 400 460 37,000  Level Miami Center
11:00AM 28.5706 -81.3450 341° North 400 460 37,000  Level Miami Center
11:01AM 28.6772 -81.3758 346° North 398 458 37,000  Level Jacksonville Center
11:02AM 28.7883 -81.4144 343° North 398 458 37,000  Level Jacksonville Center
11:03AM 28.8972 -81.4531 343° North 403 464 37,000  Level Jacksonville Center
11:04AM 29.0189 -81.4939 344° North 408 470 37,000  Level Jacksonville Center
11:05AM 29.1297 -81.5306 344° North 408 470 37,000  Level Jacksonville Center
11:06AM 29.2431 -81.5694 343° North 408 470 37,000  Level Jacksonville Center
11:07AM 29.3561 -81.6058 344° North 415 478 37,000  Level Jacksonville Center
11:08AM 29.4692 -81.6450 343° North 420 483 37,000  Level Jacksonville Center
11:09AM 29.5803 -81.6794 345° North 420 483 37,000 -60 Level Jacksonville Center
11:10AM 29.6911 -81.7139 345° North 420 483 36,900  Descending Jacksonville Center
11:11AM 29.8022 -81.7508 344° North 415 478 37,000  Climbing Jacksonville Center
11:12AM 29.9111 -81.7903 343° North 410 472 37,000  Level Jacksonville Center
11:13AM 30.0219 -81.8250 345° North 410 472 37,000  Level Jacksonville Center
11:14AM 30.1331 -81.8647 343° North 410 472 37,000  Level Jacksonville Center
11:15AM 30.2481 -81.8875 350° North 410 472 37,000  Level Jacksonville Center
11:16AM 30.3689 -81.8694 North 416 479 37,000  Level Jacksonville Center
11:17AM 30.4856 -81.8511 North 417 480 37,000 -60 Level Jacksonville Center
11:18AM 30.5961 -81.8403 North 424 488 36,900  Descending Jacksonville Center
11:19AM 30.7131 -81.8244 North 424 488 37,000  Climbing Jacksonville Center
11:20AM 30.8319 -81.8158 North 424 488 36,900 -60 Descending Jacksonville Center
11:21AM 30.9347 -81.8656 337° Northwest 405 466 36,900  Level Jacksonville Center
11:22AM 31.0375 -81.9275 333° Northwest 400 460 37,000  Climbing Jacksonville Center
11:23AM 31.1381 -81.9847 334° Northwest 400 460 36,900  Descending Jacksonville Center
11:24AM 31.2389 -82.0469 332° Northwest 405 466 37,000  Climbing Jacksonville Center
11:25AM 31.3414 -82.1044 334° Northwest 405 466 37,000 -60 Level Jacksonville Center
11:26AM 31.4442 -82.1669 333° Northwest 412 474 36,900  Descending Jacksonville Center
11:27AM 31.5508 -82.2269 334° Northwest 412 474 37,000  Climbing Jacksonville Center
11:29AM 31.7075 -82.3203 333° Northwest 405 466 37,000 -360 Level Atlanta Center
11:30AM 31.8106 -82.3794 334° Northwest 405 466 36,200 -1,020 Descending Atlanta Center
11:31AM 31.9136 -82.4436 332° Northwest 411 473 35,000 -600 Descending Atlanta Center
11:32AM 32.0189 -82.5031 334° Northwest 411 473 35,000  Level Atlanta Center
11:33AM 32.1178 -82.5747 328° Northwest 411 473 35,000 -420 Level Atlanta Center
11:34AM 32.2003 -82.6667 317° Northwest 411 473 34,200 -900 Descending Atlanta Center
11:35AM 32.2825 -82.7589 317° Northwest 411 473 33,200 -960 Descending Atlanta Center
11:36AM 32.3669 -82.8536 317° Northwest 411 473 32,300 -900 Descending Atlanta Center
11:37AM 32.4514 -82.9458 317° Northwest 411 473 31,400 -900 Descending Atlanta Center
11:38AM 32.5378 -83.0433 316° Northwest 411 473 30,500 -960 Descending Atlanta Center
11:39AM 32.6242 -83.1386 317° Northwest 411 473 29,500 -900 Descending Atlanta Center
11:40AM 32.7083 -83.2364 316° Northwest 417 480 28,700 -840 Descending Atlanta Center
11:41AM 32.7944 -83.3347 316° Northwest 417 480 27,900 3,120 Descending Atlanta Center
11:42AM 32.8806 -83.4328 316° Northwest 422 486 35,000 -3,060 Climbing Atlanta Center
11:43AM 32.9708 -83.5311 318° Northwest 432 497 21,800 -7,980 Descending Atlanta Center
11:44AM 33.0567 -83.6300 316° Northwest 432 497 19,100 -2,640 Descending Atlanta Center
11:45AM 33.1467 -83.7286 317° Northwest 419 482 16,600 -2,820 Descending Atlanta Center
11:45AM 33.2000 -83.8000 312° West 387 445 14,400 -1,560 Descending Atlanta TRACON
11:46AM 33.2667 -83.8833 314° West 382 440 14,000 -360 Descending Atlanta TRACON
11:47AM 33.2892 -83.9144 311° West 380 437 14,000  Level Atlanta Center
11:48AM 33.3539 -84.0164 307° West 380 437 14,000 -60 Level Atlanta Center
11:49AM 33.4228 -84.1158 310° West 380 437 13,900 -540 Descending Atlanta Center
11:49AM 33.4833 -84.1667 325° Northwest 382 440 13,100 -540 Descending Atlanta TRACON
11:50AM 33.5667 -84.2333 326° Northwest 383 441 13,000 -60 Descending Atlanta TRACON
11:51AM 33.6667 -84.3000 331° Northwest 371 427 13,000 -120 Level Atlanta TRACON
11:52AM 33.7333 -84.3667 320° Northwest 302 348 12,800 -1,260 Descending Atlanta TRACON
11:53AM 33.7333 -84.4500 270° West 274 315 10,500 -2,100 Descending Atlanta TRACON
11:55AM 33.7333 -84.5500 270° West 263 303 8,600 -2,040 Descending Atlanta TRACON
11:56AM 33.7333 -84.6333 270° West 259 298 6,400 -1,740 Descending Atlanta TRACON
11:57AM 33.6833 -84.6667 209° Southwest 225 259 5,200 -1,200 Descending Atlanta TRACON